sensor_id;sensor_type;location;lat;lon;timestamp;temperature;humidity
6106;DHT22;3083;51.508;7.966;2023-02-28T00:00:32;-0.80;99.90
6106;DHT22;3083;51.508;7.966;2023-02-28T00:03:00;-0.70;99.90
6106;DHT22;3083;51.508;7.966;2023-02-28T00:05:28;-0.70;99.90
6106;DHT22;3083;51.508;7.966;2023-02-28T00:07:55;-0.70;99.90
6106;DHT22;3083;51.508;7.966;2023-02-28T00:10:24;-0.60;99.90
6106;DHT22;3083;51.508;7.966;2023-02-28T00:12:53;-0.70;99.90
6106;DHT22;3083;51.508;7.966;2023-02-28T00:15:23;-0.70;99.90
6106;DHT22;3083;51.508;7.966;2023-02-28T00:17:51;-0.60;99.90
6106;DHT22;3083;51.508;7.966;2023-02-28T00:20:19;-0.60;99.90
6106;DHT22;3083;51.508;7.966;2023-02-28T00:22:47;-0.50;99.90
6106;DHT22;3083;51.508;7.966;2023-02-28T00:25:17;-0.50;99.90
6106;DHT22;3083;51.508;7.966;2023-02-28T00:27:44;-0.40;99.90
6106;DHT22;3083;51.508;7.966;2023-02-28T00:30:13;-0.40;99.90
6106;DHT22;3083;51.508;7.966;2023-02-28T00:32:41;-0.40;99.90
6106;DHT22;3083;51.508;7.966;2023-02-28T00:35:10;-0.30;99.90
6106;DHT22;3083;51.508;7.966;2023-02-28T00:37:37;-0.30;99.90
6106;DHT22;3083;51.508;7.966;2023-02-28T00:40:06;-0.30;99.90
6106;DHT22;3083;51.508;7.966;2023-02-28T00:42:33;-0.30;99.90
6106;DHT22;3083;51.508;7.966;2023-02-28T00:45:00;-0.30;99.90
6106;DHT22;3083;51.508;7.966;2023-02-28T00:47:29;-0.40;99.90
6106;DHT22;3083;51.508;7.966;2023-02-28T00:49:56;-0.40;99.90
6106;DHT22;3083;51.508;7.966;2023-02-28T00:52:24;-0.40;99.90
6106;DHT22;3083;51.508;7.966;2023-02-28T00:54:51;-0.40;99.90
6106;DHT22;3083;51.508;7.966;2023-02-28T00:57:18;-0.40;99.90
6106;DHT22;3083;51.508;7.966;2023-02-28T00:59:46;-0.50;99.90
6106;DHT22;3083;51.508;7.966;2023-02-28T01:02:13;-0.50;99.90
6106;DHT22;3083;51.508;7.966;2023-02-28T01:04:40;-0.60;99.90
6106;DHT22;3083;51.508;7.966;2023-02-28T01:07:07;-0.50;99.90
6106;DHT22;3083;51.508;7.966;2023-02-28T01:09:36;-0.60;99.90
6106;DHT22;3083;51.508;7.966;2023-02-28T01:12:03;-0.60;99.90
6106;DHT22;3083;51.508;7.966;2023-02-28T01:14:30;-0.60;99.90
6106;DHT22;3083;51.508;7.966;2023-02-28T01:16:57;-0.60;99.90
6106;DHT22;3083;51.508;7.966;2023-02-28T01:19:24;-0.60;99.90
6106;DHT22;3083;51.508;7.966;2023-02-28T01:21:51;-0.50;99.90
6106;DHT22;3083;51.508;7.966;2023-02-28T01:24:18;-0.50;99.90
6106;DHT22;3083;51.508;7.966;2023-02-28T01:26:46;-0.50;99.90
6106;DHT22;3083;51.508;7.966;2023-02-28T01:29:13;-0.50;99.90
6106;DHT22;3083;51.508;7.966;2023-02-28T01:31:41;-0.60;99.90
6106;DHT22;3083;51.508;7.966;2023-02-28T01:34:08;-0.60;99.90
6106;DHT22;3083;51.508;7.966;2023-02-28T01:36:35;-0.60;99.90
6106;DHT22;3083;51.508;7.966;2023-02-28T01:39:02;-0.70;99.90
6106;DHT22;3083;51.508;7.966;2023-02-28T01:41:31;-0.70;99.90
6106;DHT22;3083;51.508;7.966;2023-02-28T01:44:03;-0.80;99.90
6106;DHT22;3083;51.508;7.966;2023-02-28T01:46:31;-0.80;99.90
6106;DHT22;3083;51.508;7.966;2023-02-28T01:49:02;-1.00;99.90
6106;DHT22;3083;51.508;7.966;2023-02-28T01:51:36;-1.10;99.90
6106;DHT22;3083;51.508;7.966;2023-02-28T01:54:07;-1.20;99.90
6106;DHT22;3083;51.508;7.966;2023-02-28T01:56:41;-1.30;99.90
6106;DHT22;3083;51.508;7.966;2023-02-28T01:59:13;-1.40;99.90
6106;DHT22;3083;51.508;7.966;2023-02-28T02:01:41;-1.60;99.90
6106;DHT22;3083;51.508;7.966;2023-02-28T02:04:08;-1.70;99.90
6106;DHT22;3083;51.508;7.966;2023-02-28T02:06:42;-1.80;99.90
6106;DHT22;3083;51.508;7.966;2023-02-28T02:09:10;-1.90;99.90
6106;DHT22;3083;51.508;7.966;2023-02-28T02:11:39;-1.90;99.90
6106;DHT22;3083;51.508;7.966;2023-02-28T02:14:31;-1.90;99.90
6106;DHT22;3083;51.508;7.966;2023-02-28T02:17:14;-1.90;99.90
6106;DHT22;3083;51.508;7.966;2023-02-28T02:20:16;-1.90;99.90
6106;DHT22;3083;51.508;7.966;2023-02-28T02:23:13;-1.90;99.90
6106;DHT22;3083;51.508;7.966;2023-02-28T02:25:49;-2.00;99.90
6106;DHT22;3083;51.508;7.966;2023-02-28T02:28:40;-2.10;99.90
6106;DHT22;3083;51.508;7.966;2023-02-28T02:31:33;-2.00;99.90
6106;DHT22;3083;51.508;7.966;2023-02-28T02:34:36;-2.00;99.90
6106;DHT22;3083;51.508;7.966;2023-02-28T02:37:12;-1.90;99.90
6106;DHT22;3083;51.508;7.966;2023-02-28T02:39:47;-1.80;99.90
6106;DHT22;3083;51.508;7.966;2023-02-28T02:42:21;-1.70;99.90
6106;DHT22;3083;51.508;7.966;2023-02-28T02:44:55;-1.60;99.90
6106;DHT22;3083;51.508;7.966;2023-02-28T02:47:26;-1.60;99.90
6106;DHT22;3083;51.508;7.966;2023-02-28T02:50:01;-1.50;99.90
6106;DHT22;3083;51.508;7.966;2023-02-28T02:52:36;-1.50;99.90
6106;DHT22;3083;51.508;7.966;2023-02-28T02:55:06;-1.50;99.90
6106;DHT22;3083;51.508;7.966;2023-02-28T02:57:38;-1.50;99.90
6106;DHT22;3083;51.508;7.966;2023-02-28T03:00:09;-1.60;99.90
6106;DHT22;3083;51.508;7.966;2023-02-28T03:02:37;-1.70;99.90
6106;DHT22;3083;51.508;7.966;2023-02-28T03:05:09;-1.80;99.90
6106;DHT22;3083;51.508;7.966;2023-02-28T03:07:40;-1.90;99.90
6106;DHT22;3083;51.508;7.966;2023-02-28T03:10:30;-2.00;99.90
6106;DHT22;3083;51.508;7.966;2023-02-28T03:13:11;-2.10;99.90
6106;DHT22;3083;51.508;7.966;2023-02-28T03:15:58;-2.20;99.90
6106;DHT22;3083;51.508;7.966;2023-02-28T03:18:33;-2.20;99.90
6106;DHT22;3083;51.508;7.966;2023-02-28T03:21:09;-2.30;99.90
6106;DHT22;3083;51.508;7.966;2023-02-28T03:23:47;-2.40;99.90
6106;DHT22;3083;51.508;7.966;2023-02-28T03:26:21;-2.40;99.90
6106;DHT22;3083;51.508;7.966;2023-02-28T03:28:54;-2.50;99.90
6106;DHT22;3083;51.508;7.966;2023-02-28T04:35:23;-3.30;99.90
6106;DHT22;3083;51.508;7.966;2023-02-28T04:37:50;-3.30;99.90
6106;DHT22;3083;51.508;7.966;2023-02-28T04:40:17;-3.40;99.90
6106;DHT22;3083;51.508;7.966;2023-02-28T04:42:44;-3.40;99.90
6106;DHT22;3083;51.508;7.966;2023-02-28T04:45:11;-3.20;99.90
6106;DHT22;3083;51.508;7.966;2023-02-28T04:47:38;-3.10;99.90
6106;DHT22;3083;51.508;7.966;2023-02-28T04:50:05;-2.80;99.90
6106;DHT22;3083;51.508;7.966;2023-02-28T04:52:34;-2.70;99.90
6106;DHT22;3083;51.508;7.966;2023-02-28T04:55:01;-2.70;99.90
6106;DHT22;3083;51.508;7.966;2023-02-28T04:57:28;-2.80;99.90
6106;DHT22;3083;51.508;7.966;2023-02-28T04:59:55;-2.90;99.90
6106;DHT22;3083;51.508;7.966;2023-02-28T05:02:22;-3.00;99.90
6106;DHT22;3083;51.508;7.966;2023-02-28T05:04:49;-3.10;99.90
6106;DHT22;3083;51.508;7.966;2023-02-28T05:07:16;-3.20;99.90
6106;DHT22;3083;51.508;7.966;2023-02-28T05:09:45;-3.20;99.90
6106;DHT22;3083;51.508;7.966;2023-02-28T05:12:12;-3.30;99.90
6106;DHT22;3083;51.508;7.966;2023-02-28T05:14:39;-3.40;99.90
6106;DHT22;3083;51.508;7.966;2023-02-28T05:17:06;-3.50;99.90
6106;DHT22;3083;51.508;7.966;2023-02-28T05:19:33;-3.60;99.90
6106;DHT22;3083;51.508;7.966;2023-02-28T05:22:00;-3.60;99.90
6106;DHT22;3083;51.508;7.966;2023-02-28T05:24:28;-3.70;99.90
6106;DHT22;3083;51.508;7.966;2023-02-28T05:26:56;-3.70;99.90
6106;DHT22;3083;51.508;7.966;2023-02-28T05:29:23;-3.70;99.90
6106;DHT22;3083;51.508;7.966;2023-02-28T05:31:50;-3.70;99.90
6106;DHT22;3083;51.508;7.966;2023-02-28T05:34:17;-3.70;99.90
6106;DHT22;3083;51.508;7.966;2023-02-28T05:36:45;-3.60;99.90
6106;DHT22;3083;51.508;7.966;2023-02-28T05:39:11;-3.60;99.90
6106;DHT22;3083;51.508;7.966;2023-02-28T05:41:40;-3.60;99.90
6106;DHT22;3083;51.508;7.966;2023-02-28T05:44:09;-3.60;99.90
6106;DHT22;3083;51.508;7.966;2023-02-28T05:46:36;-3.60;99.90
6106;DHT22;3083;51.508;7.966;2023-02-28T05:49:03;-3.60;99.90
6106;DHT22;3083;51.508;7.966;2023-02-28T05:51:30;-3.60;99.90
6106;DHT22;3083;51.508;7.966;2023-02-28T05:54:00;-3.70;99.90
6106;DHT22;3083;51.508;7.966;2023-02-28T05:56:28;-3.80;99.90
6106;DHT22;3083;51.508;7.966;2023-02-28T05:58:55;-3.90;99.90
6106;DHT22;3083;51.508;7.966;2023-02-28T06:01:31;-4.00;99.90
6106;DHT22;3083;51.508;7.966;2023-02-28T06:03:59;-4.10;99.90
6106;DHT22;3083;51.508;7.966;2023-02-28T06:06:26;-4.10;99.90
6106;DHT22;3083;51.508;7.966;2023-02-28T06:08:55;-4.20;99.90
6106;DHT22;3083;51.508;7.966;2023-02-28T06:11:22;-4.30;99.90
6106;DHT22;3083;51.508;7.966;2023-02-28T06:13:53;-4.30;99.90
6106;DHT22;3083;51.508;7.966;2023-02-28T06:16:21;-4.40;99.90
6106;DHT22;3083;51.508;7.966;2023-02-28T06:18:49;-4.40;99.90
6106;DHT22;3083;51.508;7.966;2023-02-28T06:21:16;-4.40;99.90
6106;DHT22;3083;51.508;7.966;2023-02-28T06:23:43;-4.50;99.90
6106;DHT22;3083;51.508;7.966;2023-02-28T06:26:10;-4.50;99.90
6106;DHT22;3083;51.508;7.966;2023-02-28T06:28:37;-4.50;99.90
6106;DHT22;3083;51.508;7.966;2023-02-28T06:31:08;-4.40;99.90
6106;DHT22;3083;51.508;7.966;2023-02-28T06:33:36;-4.40;99.90
6106;DHT22;3083;51.508;7.966;2023-02-28T06:36:05;-4.40;99.90
6106;DHT22;3083;51.508;7.966;2023-02-28T06:38:33;-4.50;99.90
6106;DHT22;3083;51.508;7.966;2023-02-28T06:41:01;-4.50;99.90
6106;DHT22;3083;51.508;7.966;2023-02-28T06:43:30;-4.40;99.90
6106;DHT22;3083;51.508;7.966;2023-02-28T06:45:59;-4.30;99.90
6106;DHT22;3083;51.508;7.966;2023-02-28T06:48:26;-4.20;99.90
6106;DHT22;3083;51.508;7.966;2023-02-28T06:51:01;-4.10;99.90
6106;DHT22;3083;51.508;7.966;2023-02-28T06:53:30;-4.00;99.90
6106;DHT22;3083;51.508;7.966;2023-02-28T06:55:57;-3.80;99.90
6106;DHT22;3083;51.508;7.966;2023-02-28T06:58:24;-3.60;99.90
6106;DHT22;3083;51.508;7.966;2023-02-28T07:00:52;-3.60;99.90
6106;DHT22;3083;51.508;7.966;2023-02-28T07:03:21;-3.40;99.90
6106;DHT22;3083;51.508;7.966;2023-02-28T07:05:49;-3.30;99.90
6106;DHT22;3083;51.508;7.966;2023-02-28T07:08:16;-3.10;99.90
6106;DHT22;3083;51.508;7.966;2023-02-28T07:10:45;-3.00;99.90
6106;DHT22;3083;51.508;7.966;2023-02-28T07:13:12;-2.80;99.90
6106;DHT22;3083;51.508;7.966;2023-02-28T07:15:39;-2.70;99.90
6106;DHT22;3083;51.508;7.966;2023-02-28T07:18:06;-2.60;99.90
6106;DHT22;3083;51.508;7.966;2023-02-28T07:20:33;-2.50;99.90
6106;DHT22;3083;51.508;7.966;2023-02-28T07:22:59;-2.30;99.90
6106;DHT22;3083;51.508;7.966;2023-02-28T07:25:28;-2.20;99.90
6106;DHT22;3083;51.508;7.966;2023-02-28T07:27:57;-2.10;99.90
6106;DHT22;3083;51.508;7.966;2023-02-28T07:30:24;-2.00;99.90
6106;DHT22;3083;51.508;7.966;2023-02-28T07:32:51;-1.90;99.90
6106;DHT22;3083;51.508;7.966;2023-02-28T07:35:20;-1.80;99.90
6106;DHT22;3083;51.508;7.966;2023-02-28T07:37:47;-1.70;99.90
6106;DHT22;3083;51.508;7.966;2023-02-28T07:40:14;-1.70;99.90
6106;DHT22;3083;51.508;7.966;2023-02-28T07:42:44;-1.70;99.90
6106;DHT22;3083;51.508;7.966;2023-02-28T07:45:12;-1.70;99.90
6106;DHT22;3083;51.508;7.966;2023-02-28T07:47:40;-1.60;99.90
6106;DHT22;3083;51.508;7.966;2023-02-28T07:50:11;-1.60;99.90
6106;DHT22;3083;51.508;7.966;2023-02-28T07:52:39;-1.50;99.90
6106;DHT22;3083;51.508;7.966;2023-02-28T07:55:08;-1.40;99.90
6106;DHT22;3083;51.508;7.966;2023-02-28T07:57:36;-1.30;99.90
6106;DHT22;3083;51.508;7.966;2023-02-28T08:00:06;-1.20;99.90
6106;DHT22;3083;51.508;7.966;2023-02-28T08:02:36;-1.10;99.90
6106;DHT22;3083;51.508;7.966;2023-02-28T08:05:03;-0.80;99.90
6106;DHT22;3083;51.508;7.966;2023-02-28T08:07:30;-0.60;99.90
6106;DHT22;3083;51.508;7.966;2023-02-28T08:09:58;-0.40;99.90
6106;DHT22;3083;51.508;7.966;2023-02-28T08:12:25;-0.30;99.90
6106;DHT22;3083;51.508;7.966;2023-02-28T08:14:52;-0.20;99.90
6106;DHT22;3083;51.508;7.966;2023-02-28T08:17:19;-0.20;99.90
6106;DHT22;3083;51.508;7.966;2023-02-28T08:19:47;-0.20;99.90
6106;DHT22;3083;51.508;7.966;2023-02-28T08:22:14;-0.20;99.90
6106;DHT22;3083;51.508;7.966;2023-02-28T08:24:41;-0.30;99.90
6106;DHT22;3083;51.508;7.966;2023-02-28T08:27:08;-0.40;99.90
6106;DHT22;3083;51.508;7.966;2023-02-28T08:29:36;-0.50;99.90
6106;DHT22;3083;51.508;7.966;2023-02-28T08:32:04;-0.60;99.90
6106;DHT22;3083;51.508;7.966;2023-02-28T08:34:31;-0.60;99.90
6106;DHT22;3083;51.508;7.966;2023-02-28T08:36:59;-0.70;99.90
6106;DHT22;3083;51.508;7.966;2023-02-28T08:39:26;-0.80;99.90
6106;DHT22;3083;51.508;7.966;2023-02-28T08:41:53;-0.80;99.90
6106;DHT22;3083;51.508;7.966;2023-02-28T08:44:20;-0.80;99.90
6106;DHT22;3083;51.508;7.966;2023-02-28T08:46:47;-0.80;99.90
6106;DHT22;3083;51.508;7.966;2023-02-28T08:49:14;-0.80;99.90
6106;DHT22;3083;51.508;7.966;2023-02-28T08:51:41;-0.80;99.90
6106;DHT22;3083;51.508;7.966;2023-02-28T08:54:09;-0.70;99.90
6106;DHT22;3083;51.508;7.966;2023-02-28T08:56:38;-0.70;99.90
6106;DHT22;3083;51.508;7.966;2023-02-28T08:59:05;-0.60;99.90
6106;DHT22;3083;51.508;7.966;2023-02-28T09:01:32;-0.50;99.90
6106;DHT22;3083;51.508;7.966;2023-02-28T09:03:59;-0.40;99.90
6106;DHT22;3083;51.508;7.966;2023-02-28T09:06:27;-0.30;99.90
6106;DHT22;3083;51.508;7.966;2023-02-28T09:08:56;-0.10;99.90
6106;DHT22;3083;51.508;7.966;2023-02-28T09:11:27;0.00;99.90
6106;DHT22;3083;51.508;7.966;2023-02-28T09:13:54;0.20;99.90
6106;DHT22;3083;51.508;7.966;2023-02-28T09:16:22;0.30;99.90
6106;DHT22;3083;51.508;7.966;2023-02-28T09:18:50;0.50;99.90
6106;DHT22;3083;51.508;7.966;2023-02-28T09:21:18;0.80;99.90
6106;DHT22;3083;51.508;7.966;2023-02-28T09:23:47;1.20;99.90
6106;DHT22;3083;51.508;7.966;2023-02-28T09:26:16;1.60;99.90
6106;DHT22;3083;51.508;7.966;2023-02-28T09:28:44;1.80;99.90
6106;DHT22;3083;51.508;7.966;2023-02-28T09:31:13;1.70;99.90
6106;DHT22;3083;51.508;7.966;2023-02-28T09:33:40;1.90;99.90
6106;DHT22;3083;51.508;7.966;2023-02-28T09:36:07;2.10;99.90
6106;DHT22;3083;51.508;7.966;2023-02-28T09:38:35;2.40;99.90
6106;DHT22;3083;51.508;7.966;2023-02-28T09:41:08;2.70;99.90
6106;DHT22;3083;51.508;7.966;2023-02-28T09:43:39;3.00;99.90
6106;DHT22;3083;51.508;7.966;2023-02-28T09:46:18;3.10;99.90
6106;DHT22;3083;51.508;7.966;2023-02-28T09:48:48;3.20;99.90
6106;DHT22;3083;51.508;7.966;2023-02-28T09:51:30;3.30;99.90
6106;DHT22;3083;51.508;7.966;2023-02-28T09:53:58;3.00;99.90
6106;DHT22;3083;51.508;7.966;2023-02-28T09:56:35;2.70;99.90
6106;DHT22;3083;51.508;7.966;2023-02-28T09:59:09;2.40;99.90
6106;DHT22;3083;51.508;7.966;2023-02-28T10:01:43;2.10;99.90
6106;DHT22;3083;51.508;7.966;2023-02-28T10:04:20;1.90;99.90
6106;DHT22;3083;51.508;7.966;2023-02-28T10:06:53;1.80;99.90
6106;DHT22;3083;51.508;7.966;2023-02-28T10:09:24;1.60;99.90
6106;DHT22;3083;51.508;7.966;2023-02-28T10:11:53;1.50;99.90
6106;DHT22;3083;51.508;7.966;2023-02-28T10:14:22;1.50;99.90
6106;DHT22;3083;51.508;7.966;2023-02-28T10:16:54;1.60;99.90
6106;DHT22;3083;51.508;7.966;2023-02-28T10:19:25;1.80;99.90
6106;DHT22;3083;51.508;7.966;2023-02-28T10:22:04;2.00;99.90
6106;DHT22;3083;51.508;7.966;2023-02-28T10:24:37;2.10;99.90
6106;DHT22;3083;51.508;7.966;2023-02-28T10:27:13;2.20;99.90
6106;DHT22;3083;51.508;7.966;2023-02-28T10:29:43;2.20;99.90
6106;DHT22;3083;51.508;7.966;2023-02-28T10:32:15;2.20;99.90
6106;DHT22;3083;51.508;7.966;2023-02-28T10:34:43;2.20;99.90
6106;DHT22;3083;51.508;7.966;2023-02-28T10:37:11;2.20;99.90
6106;DHT22;3083;51.508;7.966;2023-02-28T10:39:42;2.20;99.90
6106;DHT22;3083;51.508;7.966;2023-02-28T10:42:23;2.20;99.90
6106;DHT22;3083;51.508;7.966;2023-02-28T10:45:06;2.20;99.90
6106;DHT22;3083;51.508;7.966;2023-02-28T10:47:40;2.20;99.90
6106;DHT22;3083;51.508;7.966;2023-02-28T10:50:27;2.20;99.90
6106;DHT22;3083;51.508;7.966;2023-02-28T10:52:55;2.40;99.90
6106;DHT22;3083;51.508;7.966;2023-02-28T10:55:31;2.70;99.90
6106;DHT22;3083;51.508;7.966;2023-02-28T10:57:58;3.10;99.90
6106;DHT22;3083;51.508;7.966;2023-02-28T11:00:33;3.40;99.90
6106;DHT22;3083;51.508;7.966;2023-02-28T11:03:25;3.70;99.90
6106;DHT22;3083;51.508;7.966;2023-02-28T11:05:52;4.00;99.90
6106;DHT22;3083;51.508;7.966;2023-02-28T11:08:19;4.20;99.90
6106;DHT22;3083;51.508;7.966;2023-02-28T11:10:48;4.30;99.90
6106;DHT22;3083;51.508;7.966;2023-02-28T11:13:17;4.40;99.90
6106;DHT22;3083;51.508;7.966;2023-02-28T11:15:51;4.30;99.90
6106;DHT22;3083;51.508;7.966;2023-02-28T11:18:24;4.20;99.90
6106;DHT22;3083;51.508;7.966;2023-02-28T11:20:56;4.30;99.90
6106;DHT22;3083;51.508;7.966;2023-02-28T11:23:25;4.30;99.90
6106;DHT22;3083;51.508;7.966;2023-02-28T11:25:56;4.30;99.90
6106;DHT22;3083;51.508;7.966;2023-02-28T11:28:26;4.50;99.90
6106;DHT22;3083;51.508;7.966;2023-02-28T11:31:02;4.50;99.90
6106;DHT22;3083;51.508;7.966;2023-02-28T11:33:32;4.40;99.90
6106;DHT22;3083;51.508;7.966;2023-02-28T11:36:11;4.30;99.90
6106;DHT22;3083;51.508;7.966;2023-02-28T11:38:39;4.20;99.90
6106;DHT22;3083;51.508;7.966;2023-02-28T11:41:21;4.20;99.90
6106;DHT22;3083;51.508;7.966;2023-02-28T11:44:05;4.20;99.90
6106;DHT22;3083;51.508;7.966;2023-02-28T11:46:37;4.40;99.90
6106;DHT22;3083;51.508;7.966;2023-02-28T11:49:22;4.70;99.90
6106;DHT22;3083;51.508;7.966;2023-02-28T11:51:53;5.00;99.90
6106;DHT22;3083;51.508;7.966;2023-02-28T11:54:42;5.00;99.90
6106;DHT22;3083;51.508;7.966;2023-02-28T11:57:29;4.90;99.90
6106;DHT22;3083;51.508;7.966;2023-02-28T12:00:06;4.60;99.90
6106;DHT22;3083;51.508;7.966;2023-02-28T12:02:46;4.40;99.90
6106;DHT22;3083;51.508;7.966;2023-02-28T12:05:25;4.20;99.90
6106;DHT22;3083;51.508;7.966;2023-02-28T12:08:04;4.30;99.90
6106;DHT22;3083;51.508;7.966;2023-02-28T12:10:36;4.40;99.90
6106;DHT22;3083;51.508;7.966;2023-02-28T12:13:15;4.70;99.90
6106;DHT22;3083;51.508;7.966;2023-02-28T12:16:10;5.00;99.90
6106;DHT22;3083;51.508;7.966;2023-02-28T12:18:52;5.10;99.90
6106;DHT22;3083;51.508;7.966;2023-02-28T12:21:29;5.00;99.90
6106;DHT22;3083;51.508;7.966;2023-02-28T12:24:14;4.80;99.90
6106;DHT22;3083;51.508;7.966;2023-02-28T12:26:45;4.50;99.90
6106;DHT22;3083;51.508;7.966;2023-02-28T12:29:17;4.40;99.90
6106;DHT22;3083;51.508;7.966;2023-02-28T12:31:51;4.40;99.90
6106;DHT22;3083;51.508;7.966;2023-02-28T12:34:21;4.40;99.90
6106;DHT22;3083;51.508;7.966;2023-02-28T12:36:52;4.50;99.90
6106;DHT22;3083;51.508;7.966;2023-02-28T12:39:24;4.60;99.90
6106;DHT22;3083;51.508;7.966;2023-02-28T12:41:54;4.70;99.90
6106;DHT22;3083;51.508;7.966;2023-02-28T12:44:28;4.80;99.90
6106;DHT22;3083;51.508;7.966;2023-02-28T12:46:59;4.90;99.90
6106;DHT22;3083;51.508;7.966;2023-02-28T12:49:30;5.10;99.90
6106;DHT22;3083;51.508;7.966;2023-02-28T12:52:00;5.20;99.90
6106;DHT22;3083;51.508;7.966;2023-02-28T12:54:31;5.20;99.90
6106;DHT22;3083;51.508;7.966;2023-02-28T12:57:06;5.30;99.90
6106;DHT22;3083;51.508;7.966;2023-02-28T12:59:39;5.30;99.90
6106;DHT22;3083;51.508;7.966;2023-02-28T13:11:25;5.20;99.90
6106;DHT22;3083;51.508;7.966;2023-02-28T13:13:59;5.30;99.90
6106;DHT22;3083;51.508;7.966;2023-02-28T13:16:27;5.30;99.90
6106;DHT22;3083;51.508;7.966;2023-02-28T13:19:09;5.40;99.90
6106;DHT22;3083;51.508;7.966;2023-02-28T13:21:43;5.30;99.90
6106;DHT22;3083;51.508;7.966;2023-02-28T13:24:44;5.30;99.90
6106;DHT22;3083;51.508;7.966;2023-02-28T13:27:36;5.40;99.90
6106;DHT22;3083;51.508;7.966;2023-02-28T13:33:26;5.30;99.90
6106;DHT22;3083;51.508;7.966;2023-02-28T13:36:22;5.40;99.90
6106;DHT22;3083;51.508;7.966;2023-02-28T13:38:50;5.30;99.90
6106;DHT22;3083;51.508;7.966;2023-02-28T13:41:47;5.30;99.90
6106;DHT22;3083;51.508;7.966;2023-02-28T13:44:18;5.40;99.90
6106;DHT22;3083;51.508;7.966;2023-02-28T13:47:22;5.30;99.90
6106;DHT22;3083;51.508;7.966;2023-02-28T13:49:51;5.40;99.90
6106;DHT22;3083;51.508;7.966;2023-02-28T13:52:21;5.40;99.90
6106;DHT22;3083;51.508;7.966;2023-02-28T13:55:19;5.30;99.90
6106;DHT22;3083;51.508;7.966;2023-02-28T13:58:03;5.30;99.90
6106;DHT22;3083;51.508;7.966;2023-02-28T14:00:52;5.30;99.90
6106;DHT22;3083;51.508;7.966;2023-02-28T14:03:35;5.30;99.90
6106;DHT22;3083;51.508;7.966;2023-02-28T14:06:15;5.40;99.90
6106;DHT22;3083;51.508;7.966;2023-02-28T14:08:51;5.40;99.90
6106;DHT22;3083;51.508;7.966;2023-02-28T14:11:31;5.30;99.90
6106;DHT22;3083;51.508;7.966;2023-02-28T14:14:01;5.20;99.90
6106;DHT22;3083;51.508;7.966;2023-02-28T14:16:36;5.20;99.90
6106;DHT22;3083;51.508;7.966;2023-02-28T14:19:11;5.20;99.90
6106;DHT22;3083;51.508;7.966;2023-02-28T14:21:43;5.30;99.90
6106;DHT22;3083;51.508;7.966;2023-02-28T14:24:52;5.30;99.90
6106;DHT22;3083;51.508;7.966;2023-02-28T14:27:38;5.20;99.90
6106;DHT22;3083;51.508;7.966;2023-02-28T14:30:40;5.20;99.90
6106;DHT22;3083;51.508;7.966;2023-02-28T14:33:25;5.30;99.90
6106;DHT22;3083;51.508;7.966;2023-02-28T14:36:08;5.30;99.90
6106;DHT22;3083;51.508;7.966;2023-02-28T14:38:39;5.30;99.90
6106;DHT22;3083;51.508;7.966;2023-02-28T14:41:16;5.40;99.90
6106;DHT22;3083;51.508;7.966;2023-02-28T14:43:53;5.30;99.90
6106;DHT22;3083;51.508;7.966;2023-02-28T14:46:23;5.20;99.90
6106;DHT22;3083;51.508;7.966;2023-02-28T14:48:52;5.20;99.90
6106;DHT22;3083;51.508;7.966;2023-02-28T14:51:20;5.10;99.90
6106;DHT22;3083;51.508;7.966;2023-02-28T14:53:50;5.20;99.90
6106;DHT22;3083;51.508;7.966;2023-02-28T14:56:23;5.10;99.90
6106;DHT22;3083;51.508;7.966;2023-02-28T14:58:53;5.00;99.90
6106;DHT22;3083;51.508;7.966;2023-02-28T15:01:24;5.00;99.90
6106;DHT22;3083;51.508;7.966;2023-02-28T15:03:59;4.90;99.90
6106;DHT22;3083;51.508;7.966;2023-02-28T15:06:27;4.90;99.90
6106;DHT22;3083;51.508;7.966;2023-02-28T15:09:08;4.90;99.90
6106;DHT22;3083;51.508;7.966;2023-02-28T15:11:36;4.90;99.90
6106;DHT22;3083;51.508;7.966;2023-02-28T15:14:04;4.80;99.90
6106;DHT22;3083;51.508;7.966;2023-02-28T15:16:35;4.80;99.90
6106;DHT22;3083;51.508;7.966;2023-02-28T15:19:07;4.80;99.90
6106;DHT22;3083;51.508;7.966;2023-02-28T15:21:41;4.80;99.90
6106;DHT22;3083;51.508;7.966;2023-02-28T15:24:14;4.80;99.90
6106;DHT22;3083;51.508;7.966;2023-02-28T15:26:53;4.80;99.90
6106;DHT22;3083;51.508;7.966;2023-02-28T15:29:23;4.70;99.90
6106;DHT22;3083;51.508;7.966;2023-02-28T15:31:56;4.70;99.90
6106;DHT22;3083;51.508;7.966;2023-02-28T15:34:28;4.60;99.90
6106;DHT22;3083;51.508;7.966;2023-02-28T15:36:56;4.60;99.90
6106;DHT22;3083;51.508;7.966;2023-02-28T15:39:24;4.50;99.90
6106;DHT22;3083;51.508;7.966;2023-02-28T15:41:55;4.50;99.90
6106;DHT22;3083;51.508;7.966;2023-02-28T15:44:36;4.50;99.90
6106;DHT22;3083;51.508;7.966;2023-02-28T15:47:06;4.40;99.90
6106;DHT22;3083;51.508;7.966;2023-02-28T15:49:39;4.40;99.90
6106;DHT22;3083;51.508;7.966;2023-02-28T15:52:13;4.30;99.90
6106;DHT22;3083;51.508;7.966;2023-02-28T15:54:40;4.30;99.90
6106;DHT22;3083;51.508;7.966;2023-02-28T15:57:13;4.30;99.90
6106;DHT22;3083;51.508;7.966;2023-02-28T15:59:48;4.20;99.90
6106;DHT22;3083;51.508;7.966;2023-02-28T16:02:18;4.20;99.90
6106;DHT22;3083;51.508;7.966;2023-02-28T16:05:00;4.10;99.90
6106;DHT22;3083;51.508;7.966;2023-02-28T16:07:28;4.10;99.90
6106;DHT22;3083;51.508;7.966;2023-02-28T16:09:55;4.00;99.90
6106;DHT22;3083;51.508;7.966;2023-02-28T16:12:26;4.00;99.90
6106;DHT22;3083;51.508;7.966;2023-02-28T16:14:55;3.90;99.90
6106;DHT22;3083;51.508;7.966;2023-02-28T16:17:26;3.80;99.90
6106;DHT22;3083;51.508;7.966;2023-02-28T16:19:53;3.80;99.90
6106;DHT22;3083;51.508;7.966;2023-02-28T16:22:21;3.70;99.90
6106;DHT22;3083;51.508;7.966;2023-02-28T16:24:48;3.70;99.90
6106;DHT22;3083;51.508;7.966;2023-02-28T16:27:18;3.60;99.90
6106;DHT22;3083;51.508;7.966;2023-02-28T16:29:47;3.60;99.90
6106;DHT22;3083;51.508;7.966;2023-02-28T16:32:15;3.50;99.90
6106;DHT22;3083;51.508;7.966;2023-02-28T16:34:43;3.40;99.90
6106;DHT22;3083;51.508;7.966;2023-02-28T16:37:12;3.30;99.90
6106;DHT22;3083;51.508;7.966;2023-02-28T16:39:40;3.20;99.90
6106;DHT22;3083;51.508;7.966;2023-02-28T16:42:13;3.10;99.90
6106;DHT22;3083;51.508;7.966;2023-02-28T16:44:41;3.00;99.90
6106;DHT22;3083;51.508;7.966;2023-02-28T16:47:10;2.90;99.90
6106;DHT22;3083;51.508;7.966;2023-02-28T16:49:38;2.80;99.90
6106;DHT22;3083;51.508;7.966;2023-02-28T16:52:08;2.70;99.90
6106;DHT22;3083;51.508;7.966;2023-02-28T16:54:36;2.60;99.90
6106;DHT22;3083;51.508;7.966;2023-02-28T16:57:03;2.50;99.90
6106;DHT22;3083;51.508;7.966;2023-02-28T16:59:31;2.40;99.90
6106;DHT22;3083;51.508;7.966;2023-02-28T17:01:58;2.30;99.90
6106;DHT22;3083;51.508;7.966;2023-02-28T17:04:25;2.10;99.90
6106;DHT22;3083;51.508;7.966;2023-02-28T17:06:53;1.90;99.90
6106;DHT22;3083;51.508;7.966;2023-02-28T17:09:22;1.80;99.90
6106;DHT22;3083;51.508;7.966;2023-02-28T17:11:50;1.60;99.90
6106;DHT22;3083;51.508;7.966;2023-02-28T17:14:18;1.50;99.90
6106;DHT22;3083;51.508;7.966;2023-02-28T17:16:46;1.30;99.90
6106;DHT22;3083;51.508;7.966;2023-02-28T17:19:15;1.20;99.90
6106;DHT22;3083;51.508;7.966;2023-02-28T17:21:43;1.20;99.90
6106;DHT22;3083;51.508;7.966;2023-02-28T17:24:10;1.10;99.90
6106;DHT22;3083;51.508;7.966;2023-02-28T17:26:40;1.10;99.90
6106;DHT22;3083;51.508;7.966;2023-02-28T17:29:14;1.00;99.90
6106;DHT22;3083;51.508;7.966;2023-02-28T17:31:41;1.00;99.90
6106;DHT22;3083;51.508;7.966;2023-02-28T17:34:09;0.90;99.90
6106;DHT22;3083;51.508;7.966;2023-02-28T17:36:36;0.80;99.90
6106;DHT22;3083;51.508;7.966;2023-02-28T17:39:04;0.70;99.90
6106;DHT22;3083;51.508;7.966;2023-02-28T17:41:35;0.60;99.90
6106;DHT22;3083;51.508;7.966;2023-02-28T17:44:04;0.50;99.90
6106;DHT22;3083;51.508;7.966;2023-02-28T17:46:31;0.40;99.90
6106;DHT22;3083;51.508;7.966;2023-02-28T17:48:58;0.30;99.90
6106;DHT22;3083;51.508;7.966;2023-02-28T17:51:25;0.20;99.90
6106;DHT22;3083;51.508;7.966;2023-02-28T17:53:52;0.20;99.90